Time;durP1;ratioP1;P1;durP2;ratioP2;P2;SDS_P1;SDS_P2;PMS_P1;PMS_P2;Temp;Humidity;BMP_temperature;BMP_pressure;BME280_temperature;BME280_humidity;BME280_pressure;Samples;Min_cycle;Max_cycle;Signal;HPM_P1;HPM_P2
2023/03/26 00:00:04;;;;;;;;;;;;;;;26.48;40.25;93863.28;4990795;28;7430;-55
2023/03/26 00:02:44;;;;;;;;;;;;;;;26.48;39.99;93868.78;5015492;28;7053;-55
2023/03/26 00:05:13;;;;;;;;;;;;;;;26.50;39.97;93869.00;4985016;28;7487;-55
2023/03/26 00:07:58;;;;;;;;;;;;;;;26.48;40.12;93857.75;5022372;28;6908;-55
2023/03/26 00:10:51;;;;;;;;;;;;;;;26.48;40.25;93857.75;5002340;28;7068;-55
2023/03/26 00:13:29;;;;;;;;;;;;;;;26.48;40.51;93849.47;5007882;28;7372;-55
2023/03/26 00:15:56;;;;;;;;;;;;;;;26.42;39.91;93855.09;5014764;28;7305;-55
2023/03/26 00:18:30;;;;;;;;;;;;;;;26.44;40.34;93847.06;5016118;28;7065;-55
2023/03/26 00:20:58;;;;;;;;;;;;;;;26.43;40.00;93844.81;5013584;28;7656;-56
2023/03/26 00:23:28;;;;;;;;;;;;;;;26.44;39.95;93846.31;5014478;28;8687;-55
2023/03/26 00:26:00;;;;;;;;;;;;;;;26.44;40.26;93838.78;5017187;28;8748;-55
2023/03/26 00:28:49;;;;;;;;;;;;;;;26.45;40.63;93834.72;5013747;28;7115;-56
2023/03/26 00:31:17;;;;;;;;;;;;;;;26.42;39.87;93835.81;5013134;28;7220;-55
2023/03/26 00:33:46;;;;;;;;;;;;;;;26.43;39.96;93833.78;5019220;28;9138;-56
2023/03/26 00:36:16;;;;;;;;;;;;;;;26.46;39.94;93839.00;5000735;28;7078;-55
2023/03/26 00:38:43;;;;;;;;;;;;;;;26.45;40.35;93842.25;4999935;28;6942;-55
2023/03/26 00:41:25;;;;;;;;;;;;;;;26.43;40.32;93836.53;5000802;28;7199;-55
2023/03/26 00:43:56;;;;;;;;;;;;;;;26.43;39.83;93834.53;5000822;28;7068;-55
2023/03/26 00:46:30;;;;;;;;;;;;;;;26.41;39.69;93833.56;5005561;28;7872;-55
2023/03/26 00:48:58;;;;;;;;;;;;;;;26.42;40.03;93835.81;4989704;28;7421;-55
2023/03/26 00:51:29;;;;;;;;;;;;;;;26.44;40.13;93830.50;5002939;28;9057;-56
2023/03/26 00:53:58;;;;;;;;;;;;;;;26.42;40.05;93826.78;4998192;28;8706;-55
2023/03/26 00:56:25;;;;;;;;;;;;;;;26.41;40.54;93836.31;4991906;28;9329;-55
2023/03/26 00:58:51;;;;;;;;;;;;;;;26.40;39.99;93834.84;5006795;28;8636;-55
2023/03/26 01:01:26;;;;;;;;;;;;;;;26.40;40.06;93832.09;4981585;28;8938;-55
2023/03/26 01:03:58;;;;;;;;;;;;;;;26.40;39.88;93815.53;5008048;28;8937;-55
2023/03/26 01:06:34;;;;;;;;;;;;;;;26.40;40.56;93816.28;5002220;28;7119;-55
2023/03/26 01:09:17;;;;;;;;;;;;;;;26.38;40.38;93805.03;4986937;28;7227;-55
2023/03/26 01:11:44;;;;;;;;;;;;;;;26.40;40.37;93807.28;4991618;28;9078;-55
2023/03/26 01:14:17;;;;;;;;;;;;;;;26.39;40.26;93800.25;5003130;28;9747;-55
2023/03/26 01:17:05;;;;;;;;;;;;;;;26.39;40.35;93795.50;5006197;28;7256;-55
2023/03/26 01:19:57;;;;;;;;;;;;;;;26.37;40.31;93792.53;5009363;28;7265;-55
2023/03/26 01:22:27;;;;;;;;;;;;;;;26.36;40.38;93796.53;5006651;28;7211;-55
2023/03/26 01:24:55;;;;;;;;;;;;;;;26.35;40.20;93800.59;5009588;28;8738;-55
2023/03/26 01:27:23;;;;;;;;;;;;;;;26.36;40.55;93788.28;4991253;28;7186;-56
2023/03/26 01:30:17;;;;;;;;;;;;;;;26.33;39.86;93775.56;5006323;28;7683;-56
2023/03/26 01:33:05;;;;;;;;;;;;;;;26.35;40.63;93772.25;5003504;28;7313;-56
2023/03/26 01:36:09;;;;;;;;;;;;;;;26.35;40.57;93764.00;5008411;28;7274;-55
2023/03/26 01:38:47;;;;;;;;;;;;;;;26.30;39.91;93745.53;4903751;29;8213;-55
2023/03/26 01:41:27;;;;;;;;;;;;;;;26.27;40.32;93754.88;4903237;29;9163;-55
2023/03/26 01:44:00;;;;;;;;;;;;;;;26.26;40.10;93758.91;4889536;29;7023;-55
2023/03/26 01:46:38;;;;;;;;;;;;;;;26.27;40.34;93741.09;4907390;29;7267;-55
2023/03/26 01:49:11;;;;;;;;;;;;;;;26.25;40.77;93729.88;4897181;29;7046;-55
2023/03/26 01:51:41;;;;;;;;;;;;;;;26.27;40.94;93738.34;4902964;29;9042;-55
2023/03/26 01:54:15;;;;;;;;;;;;;;;26.24;40.85;93725.59;4895517;29;8456;-55
2023/03/26 01:56:55;;;;;;;;;;;;;;;26.22;40.95;93726.16;4907073;29;9068;-55
2023/03/26 02:00:00;;;;;;;;;;;;;;;26.21;40.33;93718.41;4905266;29;7295;-55
2023/03/26 02:02:57;;;;;;;;;;;;;;;26.25;40.35;93708.56;4905420;29;8998;-55
2023/03/26 02:05:58;;;;;;;;;;;;;;;26.21;40.92;93704.63;4884386;29;9256;-55
2023/03/26 02:08:46;;;;;;;;;;;;;;;26.19;41.02;93690.66;4818603;29;9083;-55
2023/03/26 02:11:19;;;;;;;;;;;;;;;26.22;40.77;93675.78;4808878;29;8246;-55
2023/03/26 02:14:04;;;;;;;;;;;;;;;26.21;40.94;93668.81;4840540;29;7321;-55
2023/03/26 02:16:47;;;;;;;;;;;;;;;26.16;40.30;93664.88;4865295;29;8429;-55
2023/03/26 02:19:20;;;;;;;;;;;;;;;26.15;41.12;93657.88;4879705;29;9247;-55
2023/03/26 02:21:50;;;;;;;;;;;;;;;26.12;40.67;93650.69;4880664;29;7300;-55
2023/03/26 02:24:17;;;;;;;;;;;;;;;26.10;41.15;93645.69;4880256;29;9340;-55
2023/03/26 02:26:46;;;;;;;;;;;;;;;26.11;41.35;93643.69;4879061;29;7326;-55
2023/03/26 02:29:17;;;;;;;;;;;;;;;26.08;40.64;93642.72;4874100;29;9037;-55
2023/03/26 02:31:52;;;;;;;;;;;;;;;26.10;40.43;93639.44;4880896;29;9400;-55
2023/03/26 02:34:18;;;;;;;;;;;;;;;26.09;41.15;93624.19;4865262;29;7219;-55
2023/03/26 02:36:45;;;;;;;;;;;;;;;26.09;41.34;93624.94;4880431;29;7310;-55
2023/03/26 02:39:31;;;;;;;;;;;;;;;26.10;40.50;93617.38;4876958;29;9083;-55
2023/03/26 02:41:57;;;;;;;;;;;;;;;26.09;41.10;93608.41;4925735;28;7252;-55
2023/03/26 02:44:26;;;;;;;;;;;;;;;26.08;41.25;93606.13;5014683;28;7213;-55
2023/03/26 02:46:58;;;;;;;;;;;;;;;26.07;40.98;93605.41;4993654;28;8537;-55
2023/03/26 02:49:43;;;;;;;;;;;;;;;26.08;41.37;93600.59;5007943;28;8743;-55
2023/03/26 02:52:17;;;;;;;;;;;;;;;26.09;40.49;93585.59;5020744;28;7319;-55
2023/03/26 02:54:49;;;;;;;;;;;;;;;26.13;41.67;93575.72;5021507;28;7038;-55
2023/03/26 02:57:27;;;;;;;;;;;;;;;26.15;40.59;93573.19;4999170;28;9800;-56
2023/03/26 03:00:26;;;;;;;;;;;;;;;26.11;41.16;93555.50;5000512;28;8763;-55
2023/03/26 03:02:52;;;;;;;;;;;;;;;26.08;41.41;93559.28;4932735;29;6998;-56
2023/03/26 03:05:19;;;;;;;;;;;;;;;26.08;41.12;93557.28;4933653;29;9093;-56
2023/03/26 03:07:45;;;;;;;;;;;;;;;26.07;41.34;93555.78;4918542;28;7997;-55
2023/03/26 03:10:14;;;;;;;;;;;;;;;26.07;41.43;93560.56;4934943;28;8974;-55
2023/03/26 03:12:40;;;;;;;;;;;;;;;26.05;41.06;93552.09;4916780;29;7064;-55
2023/03/26 03:15:07;;;;;;;;;;;;;;;26.05;40.73;93554.84;4914150;29;9197;-56
2023/03/26 03:17:37;;;;;;;;;;;;;;;26.04;40.79;93572.63;4933857;28;8256;-55
2023/03/26 03:20:04;;;;;;;;;;;;;;;26.02;40.71;93564.91;4933242;28;7592;-55
2023/03/26 03:22:32;;;;;;;;;;;;;;;26.03;40.76;93549.84;4936718;28;7257;-55
2023/03/26 03:25:07;;;;;;;;;;;;;;;26.03;40.81;93540.88;4932625;29;9186;-55
2023/03/26 03:27:39;;;;;;;;;;;;;;;26.01;41.46;93538.63;4926206;28;8610;-55
2023/03/26 03:30:07;;;;;;;;;;;;;;;26.03;40.88;93527.09;4934278;29;7866;-55
2023/03/26 03:32:33;;;;;;;;;;;;;;;26.02;41.54;93523.59;4934091;29;7031;-55
2023/03/26 03:34:59;;;;;;;;;;;;;;;26.00;41.46;93534.41;4916884;29;7302;-56
2023/03/26 03:37:29;;;;;;;;;;;;;;;26.01;41.55;93529.63;4944031;28;7056;-56
2023/03/26 03:39:56;;;;;;;;;;;;;;;26.00;41.09;93523.38;4993460;28;7343;-56
2023/03/26 03:42:26;;;;;;;;;;;;;;;26.01;41.52;93535.88;5000751;28;7690;-55
2023/03/26 03:44:59;;;;;;;;;;;;;;;26.02;41.55;93536.63;5017549;28;7455;-55
2023/03/26 03:47:28;;;;;;;;;;;;;;;26.00;41.16;93520.63;5003956;28;7084;-55
2023/03/26 03:49:58;;;;;;;;;;;;;;;26.01;41.63;93519.34;5022708;28;9348;-55
2023/03/26 03:52:28;;;;;;;;;;;;;;;26.00;40.86;93517.13;5014171;28;7032;-55
2023/03/26 03:54:59;;;;;;;;;;;;;;;26.01;41.02;93510.34;5000179;28;8849;-55
2023/03/26 03:57:32;;;;;;;;;;;;;;;26.00;41.00;93504.09;4995907;28;7293;-55
2023/03/26 03:59:59;;;;;;;;;;;;;;;25.98;40.98;93503.88;5000432;28;8443;-55
2023/03/26 04:02:29;;;;;;;;;;;;;;;25.98;40.77;93503.88;5006165;28;9052;-56
2023/03/26 04:04:58;;;;;;;;;;;;;;;25.97;41.33;93507.16;4986683;28;7492;-55
2023/03/26 04:07:30;;;;;;;;;;;;;;;25.97;41.20;93502.38;4995019;28;7236;-55
2023/03/26 04:10:25;;;;;;;;;;;;;;;25.99;40.79;93516.38;5007510;28;8926;-55
2023/03/26 04:13:01;;;;;;;;;;;;;;;25.99;41.03;93490.84;4900312;29;7259;-55
2023/03/26 04:15:29;;;;;;;;;;;;;;;25.98;41.60;93487.34;4915672;29;9134;-55
2023/03/26 04:17:57;;;;;;;;;;;;;;;25.98;40.95;93473.56;4916437;29;7058;-55
2023/03/26 04:20:34;;;;;;;;;;;;;;;25.98;41.55;93473.56;4920525;29;9111;-55
2023/03/26 04:23:19;;;;;;;;;;;;;;;25.98;41.51;93479.09;4931248;29;8875;-55
2023/03/26 04:25:53;;;;;;;;;;;;;;;25.97;40.87;93474.09;4913597;29;9039;-55
2023/03/26 04:28:52;;;;;;;;;;;;;;;25.98;40.87;93459.81;4910679;29;7259;-55
2023/03/26 04:31:37;;;;;;;;;;;;;;;25.98;41.02;93448.78;4897733;29;9769;-55
2023/03/26 04:34:22;;;;;;;;;;;;;;;26.00;41.05;93459.25;4884404;29;8741;-55
2023/03/26 04:36:53;;;;;;;;;;;;;;;25.98;41.56;93456.28;4896435;29;6937;-55
2023/03/26 04:39:27;;;;;;;;;;;;;;;25.97;41.49;93458.31;4893793;29;9010;-56
2023/03/26 04:41:54;;;;;;;;;;;;;;;25.98;41.02;93440.50;4877412;29;9133;-55
2023/03/26 04:44:23;;;;;;;;;;;;;;;25.97;41.13;93441.03;4893470;29;7136;-55
2023/03/26 04:46:51;;;;;;;;;;;;;;;25.97;40.68;93430.00;4893619;29;9252;-55
2023/03/26 04:49:18;;;;;;;;;;;;;;;25.96;40.78;93434.81;4907944;28;7062;-55
2023/03/26 04:51:45;;;;;;;;;;;;;;;25.97;40.45;93443.78;4967432;28;9040;-55
2023/03/26 04:54:19;;;;;;;;;;;;;;;25.96;40.71;93434.81;4949373;28;9295;-55
2023/03/26 04:57:22;;;;;;;;;;;;;;;25.97;41.47;93422.50;4953866;28;7289;-55
2023/03/26 04:59:49;;;;;;;;;;;;;;;25.97;41.00;93419.72;4947651;28;8921;-55
2023/03/26 05:02:16;;;;;;;;;;;;;;;26.00;41.15;93410.41;4956058;28;7348;-55
2023/03/26 05:04:44;;;;;;;;;;;;;;;26.00;41.44;93407.66;4951447;28;9015;-55
2023/03/26 05:07:17;;;;;;;;;;;;;;;26.01;41.34;93402.88;4957326;28;9776;-55
2023/03/26 05:09:46;;;;;;;;;;;;;;;25.99;41.21;93395.13;5009446;28;9241;-55
2023/03/26 05:12:15;;;;;;;;;;;;;;;25.99;40.65;93395.13;4980476;28;7303;-55
2023/03/26 05:14:43;;;;;;;;;;;;;;;25.98;41.41;93384.66;5010880;28;8913;-55
2023/03/26 05:17:14;;;;;;;;;;;;;;;25.97;41.24;93380.41;5007119;28;8823;-55
2023/03/26 05:19:40;;;;;;;;;;;;;;;25.95;41.42;93391.97;5001497;28;7224;-55
2023/03/26 05:22:06;;;;;;;;;;;;;;;25.97;41.48;93388.69;5003847;28;8907;-55
2023/03/26 05:24:32;;;;;;;;;;;;;;;25.96;40.98;93376.19;5002554;28;8618;-55
2023/03/26 05:26:58;;;;;;;;;;;;;;;25.95;40.78;93360.94;4995786;28;9254;-55
2023/03/26 05:29:26;;;;;;;;;;;;;;;25.96;40.96;93345.88;5001946;28;7542;-55
2023/03/26 05:31:59;;;;;;;;;;;;;;;25.97;41.21;93350.84;4995614;28;7816;-55
2023/03/26 05:34:32;;;;;;;;;;;;;;;25.98;41.06;93360.59;5022722;28;7037;-56
2023/03/26 05:37:08;;;;;;;;;;;;;;;25.99;40.93;93372.38;5008992;28;7297;-55
2023/03/26 05:40:15;;;;;;;;;;;;;;;25.98;41.55;93382.66;4980655;28;7316;-56
2023/03/26 05:43:19;;;;;;;;;;;;;;;25.97;40.55;93389.44;4933844;29;9496;-55
2023/03/26 05:46:01;;;;;;;;;;;;;;;25.98;41.51;93396.44;4940267;28;9092;-55
2023/03/26 05:48:43;;;;;;;;;;;;;;;25.94;41.41;93379.50;4922553;29;7855;-55
2023/03/26 05:51:11;;;;;;;;;;;;;;;25.93;40.98;93386.28;4928484;29;7349;-55
2023/03/26 05:53:42;;;;;;;;;;;;;;;25.92;40.97;93390.31;4934587;29;7124;-55
2023/03/26 05:56:29;;;;;;;;;;;;;;;25.93;41.11;93369.00;4923589;29;9033;-56
2023/03/26 05:59:03;;;;;;;;;;;;;;;25.91;41.43;93369.53;4917372;29;7446;-55
2023/03/26 06:01:43;;;;;;;;;;;;;;;25.93;41.37;93349.72;4930094;29;8218;-55
2023/03/26 06:04:20;;;;;;;;;;;;;;;25.90;40.97;93323.97;4909179;29;7043;-55
2023/03/26 06:07:02;;;;;;;;;;;;;;;25.91;41.22;93321.97;4938111;29;9733;-56
2023/03/26 06:09:33;;;;;;;;;;;;;;;25.88;41.29;93298.97;4939557;29;7214;-56
2023/03/26 06:12:00;;;;;;;;;;;;;;;25.92;40.70;93317.94;4923837;29;7091;-55
2023/03/26 06:14:28;;;;;;;;;;;;;;;25.93;41.42;93309.13;4917398;29;7109;-55
2023/03/26 06:16:58;;;;;;;;;;;;;;;25.95;40.92;93301.06;4971470;28;9443;-55
2023/03/26 06:19:29;;;;;;;;;;;;;;;25.95;41.73;93281.78;5010607;28;9476;-55
2023/03/26 06:22:05;;;;;;;;;;;;;;;25.95;41.03;93284.53;5008862;28;9156;-56
2023/03/26 06:24:51;;;;;;;;;;;;;;;25.93;40.71;93273.31;4998420;28;9042;-55
2023/03/26 06:27:20;;;;;;;;;;;;;;;25.93;40.82;93265.03;4994423;28;9068;-55
2023/03/26 06:29:47;;;;;;;;;;;;;;;25.92;41.26;93255.31;4998105;28;7120;-56
2023/03/26 06:32:15;;;;;;;;;;;;;;;25.93;41.11;93253.28;5011167;28;7264;-55
2023/03/26 06:34:42;;;;;;;;;;;;;;;25.93;41.58;93256.78;4994396;28;8716;-55
2023/03/26 06:37:15;;;;;;;;;;;;;;;25.92;41.18;93246.31;5007158;28;7281;-55
2023/03/26 06:39:43;;;;;;;;;;;;;;;25.94;41.44;93255.53;5002882;28;7237;-55
2023/03/26 06:42:21;;;;;;;;;;;;;;;25.98;40.78;93293.72;5009331;28;8871;-56
2023/03/26 06:44:55;;;;;;;;;;;;;;;25.96;40.88;93312.81;5011726;28;9139;-56
2023/03/26 06:47:21;;;;;;;;;;;;;;;25.95;41.66;93328.59;4994788;28;7038;-55
2023/03/26 06:50:19;;;;;;;;;;;;;;;25.95;41.06;93339.63;4997167;28;7107;-55
2023/03/26 06:53:06;;;;;;;;;;;;;;;25.95;41.24;93345.13;4931818;29;8753;-55
2023/03/26 06:55:40;;;;;;;;;;;;;;;25.94;40.78;93340.91;4932789;29;8611;-56
2023/03/26 06:58:20;;;;;;;;;;;;;;;25.96;40.83;93354.91;4919797;29;9050;-55
2023/03/26 07:00:45;;;;;;;;;;;;;;;25.96;41.83;93363.16;4926341;29;7311;-56
2023/03/26 07:03:21;;;;;;;;;;;;;;;25.97;40.91;93378.41;4929503;29;8844;-55
2023/03/26 07:05:58;;;;;;;;;;;;;;;25.95;41.17;93353.41;4932379;29;7243;-55
2023/03/26 07:08:34;;;;;;;;;;;;;;;26.00;40.76;93347.03;4912796;29;7116;-55
2023/03/26 07:11:10;;;;;;;;;;;;;;;26.05;40.73;93343.41;4932808;29;9060;-55
2023/03/26 07:13:46;;;;;;;;;;;;;;;26.05;40.32;93348.91;4931545;29;7033;-55
2023/03/26 07:16:13;;;;;;;;;;;;;;;26.01;40.74;93353.28;4911417;29;7295;-55
2023/03/26 07:18:50;;;;;;;;;;;;;;;26.00;40.93;93330.50;4914237;29;8775;-56
2023/03/26 07:21:25;;;;;;;;;;;;;;;25.98;41.60;93329.56;4919058;29;8606;-56
2023/03/26 07:23:54;;;;;;;;;;;;;;;25.98;40.54;93318.53;4931591;29;7059;-56
2023/03/26 07:26:36;;;;;;;;;;;;;;;25.99;40.67;93323.50;4917289;29;7272;-56
2023/03/26 07:29:23;;;;;;;;;;;;;;;25.98;41.34;93310.28;4950494;28;9131;-55
2023/03/26 07:32:07;;;;;;;;;;;;;;;25.98;41.24;93302.75;5015714;28;9021;-56
2023/03/26 07:34:54;;;;;;;;;;;;;;;25.99;41.59;93297.97;4999501;28;7024;-56
2023/03/26 07:37:51;;;;;;;;;;;;;;;26.02;41.63;93294.13;5016699;28;7476;-56
2023/03/26 07:40:42;;;;;;;;;;;;;;;26.01;40.77;93292.66;5002057;28;7275;-56
2023/03/26 07:43:36;;;;;;;;;;;;;;;25.99;41.23;93276.66;4999778;28;8240;-56
2023/03/26 07:46:02;;;;;;;;;;;;;;;25.98;40.70;93269.69;5016306;28;6966;-56
2023/03/26 07:48:46;;;;;;;;;;;;;;;25.99;41.49;93278.69;5005023;28;7227;-56
2023/03/26 07:51:17;;;;;;;;;;;;;;;25.99;40.98;93282.16;5008356;28;9454;-56
2023/03/26 07:54:12;;;;;;;;;;;;;;;26.06;40.83;93278.00;5011247;28;7381;-56
2023/03/26 07:56:55;;;;;;;;;;;;;;;26.03;41.36;93276.34;4942946;28;7268;-56
2023/03/26 08:00:15;;;;;;;;;;;;;;;26.01;41.07;93276.13;4959407;28;7033;-56
2023/03/26 08:03:11;;;;;;;;;;;;;;;26.04;41.48;93253.00;4898345;29;9006;-56
2023/03/26 08:06:03;;;;;;;;;;;;;;;26.04;41.17;93259.25;4904155;29;9504;-56
2023/03/26 08:12:26;;;;;;;;;;;;;;;25.98;40.96;93238.63;4917627;29;9082;-56
2023/03/26 08:15:40;;;;;;;;;;;;;;;26.00;40.86;93242.31;4915056;29;9162;-56
2023/03/26 08:18:40;;;;;;;;;;;;;;;26.01;40.90;93243.78;4883658;29;7276;-56
2023/03/26 08:21:55;;;;;;;;;;;;;;;26.01;41.16;93238.28;4891642;29;9080;-56
2023/03/26 08:24:33;;;;;;;;;;;;;;;25.99;41.92;93229.81;4899215;29;7959;-56
2023/03/26 08:27:36;;;;;;;;;;;;;;;25.99;42.14;93229.81;4901007;29;7112;-56
2023/03/26 08:30:31;;;;;;;;;;;;;;;26.00;42.10;93236.06;4876287;29;9025;-56
2023/03/26 08:33:35;;;;;;;;;;;;;;;26.00;41.89;93231.31;5026280;28;6685;-54
2023/03/26 08:36:04;;;;;;;;;;;;;;;25.98;41.70;93236.63;5002052;28;7469;-54
2023/03/26 08:38:32;;;;;;;;;;;;;;;26.00;41.71;93236.81;5007970;28;7855;-54
2023/03/26 08:41:13;;;;;;;;;;;;;;;26.06;42.14;93222.88;5011165;28;8730;-54
2023/03/26 08:44:28;;;;;;;;;;;;;;;26.06;41.77;93211.84;5006790;28;7441;-54
2023/03/26 08:47:13;;;;;;;;;;;;;;;26.05;42.13;93224.91;5015499;28;9131;-54
2023/03/26 08:50:22;;;;;;;;;;;;;;;26.10;42.43;93235.06;5014594;28;9419;-54
2023/03/26 08:53:17;;;;;;;;;;;;;;;26.12;42.54;93221.47;5008564;28;7355;-54
2023/03/26 08:56:31;;;;;;;;;;;;;;;26.10;42.67;93218.53;5020789;28;8991;-54
2023/03/26 08:59:30;;;;;;;;;;;;;;;26.08;42.56;93220.31;5004690;28;7022;-54
2023/03/26 09:05:53;;;;;;;;;;;;;;;26.06;42.10;93233.91;4993172;28;7649;-54
2023/03/26 09:08:49;;;;;;;;;;;;;;;26.05;42.53;93235.19;4998555;28;7035;-54
2023/03/26 09:11:43;;;;;;;;;;;;;;;26.05;42.73;93227.69;5002103;28;8722;-54
2023/03/26 09:17:43;;;;;;;;;;;;;;;26.12;42.44;93229.03;5004547;28;9105;-54
2023/03/26 09:20:31;;;;;;;;;;;;;;;26.11;42.14;93224.78;4995191;28;6990;-54
2023/03/26 09:23:41;;;;;;;;;;;;;;;26.09;42.79;93224.59;4989681;28;7121;-56
2023/03/26 09:26:43;;;;;;;;;;;;;;;26.08;42.91;93254.16;5027696;28;7049;-56
2023/03/26 09:29:47;;;;;;;;;;;;;;;26.07;42.57;93313.28;5009633;28;7002;-56
2023/03/26 09:32:28;;;;;;;;;;;;;;;26.13;42.51;93311.16;5014648;28;7261;-57
2023/03/26 09:35:31;;;;;;;;;;;;;;;26.19;42.49;93291.72;5020825;28;9148;-57
2023/03/26 09:38:35;;;;;;;;;;;;;;;26.17;42.32;93306.03;5015039;28;7651;-56
2023/03/26 09:41:35;;;;;;;;;;;;;;;26.20;42.78;93298.72;5020680;28;7229;-56
2023/03/26 09:44:20;;;;;;;;;;;;;;;26.22;42.92;93323.72;4932520;28;9094;-56
2023/03/26 09:47:18;;;;;;;;;;;;;;;26.24;42.94;93317.66;4932849;28;7493;-57
2023/03/26 09:49:55;;;;;;;;;;;;;;;26.24;42.42;93314.91;4941434;28;9156;-57
2023/03/26 09:52:49;;;;;;;;;;;;;;;26.26;42.20;93323.38;4927730;28;9061;-56
2023/03/26 09:55:39;;;;;;;;;;;;;;;26.26;42.76;93328.88;4938590;28;7428;-56
2023/03/26 09:58:39;;;;;;;;;;;;;;;26.24;43.01;93312.88;4946195;28;9242;-56
2023/03/26 10:01:09;;;;;;;;;;;;;;;26.31;43.00;93319.72;4931840;28;7023;-56
2023/03/26 10:03:54;;;;;;;;;;;;;;;26.30;42.66;93309.97;4928581;29;7068;-56
2023/03/26 10:06:50;;;;;;;;;;;;;;;26.25;42.69;93302.59;4925237;29;8772;-56
2023/03/26 10:09:47;;;;;;;;;;;;;;;26.21;42.52;93311.19;4940123;28;7131;-56
2023/03/26 10:12:37;;;;;;;;;;;;;;;26.20;42.39;93309.72;4937913;28;9022;-56
2023/03/26 10:15:37;;;;;;;;;;;;;;;26.16;42.69;93323.84;4928114;28;7039;-56
2023/03/26 10:18:13;;;;;;;;;;;;;;;26.13;42.77;93330.44;4934335;29;7051;-56
2023/03/26 10:20:49;;;;;;;;;;;;;;;26.15;42.84;93307.84;4995145;28;6987;-56
2023/03/26 10:23:36;;;;;;;;;;;;;;;26.11;42.88;93305.44;4998326;28;7275;-56
2023/03/26 10:26:27;;;;;;;;;;;;;;;26.10;42.94;93300.47;4997224;28;7253;-56
2023/03/26 10:29:03;;;;;;;;;;;;;;;26.10;42.62;93301.19;5000205;28;8635;-56
2023/03/26 10:32:00;;;;;;;;;;;;;;;26.09;42.68;93277.69;5026766;28;7215;-56
2023/03/26 10:37:39;;;;;;;;;;;;;;;26.06;42.76;93262.19;4999134;28;7525;-56
2023/03/26 10:40:35;;;;;;;;;;;;;;;26.06;43.48;93270.47;5008434;28;8647;-56
2023/03/26 10:43:37;;;;;;;;;;;;;;;26.09;42.74;93276.94;5036547;28;9647;-56
2023/03/26 10:46:17;;;;;;;;;;;;;;;26.09;43.39;93271.44;4942215;28;8925;-56
2023/03/26 10:49:03;;;;;;;;;;;;;;;26.10;43.63;93278.41;4953989;28;7783;-55
2023/03/26 10:52:11;;;;;;;;;;;;;;;26.10;43.32;93278.41;4967604;28;8216;-56
2023/03/26 10:55:14;;;;;;;;;;;;;;;26.08;42.71;93275.44;4932069;29;7309;-56
2023/03/26 10:58:28;;;;;;;;;;;;;;;26.08;42.53;93275.44;4942843;28;7284;-56
2023/03/26 11:01:22;;;;;;;;;;;;;;;26.08;42.83;93273.44;4899238;29;8703;-56
2023/03/26 11:04:19;;;;;;;;;;;;;;;26.07;43.56;93273.97;4900801;29;7360;-56
2023/03/26 11:07:39;;;;;;;;;;;;;;;26.05;42.97;93271.75;4900804;29;7325;-56
2023/03/26 11:10:42;;;;;;;;;;;;;;;26.05;43.07;93290.31;4839677;29;7113;-55
2023/03/26 11:13:31;;;;;;;;;;;;;;;26.05;43.54;93282.78;4843888;29;7391;-55
2023/03/26 11:16:40;;;;;;;;;;;;;;;26.11;42.69;93269.63;4841182;29;7064;-55
2023/03/26 11:19:51;;;;;;;;;;;;;;;26.14;43.31;93282.31;4806688;29;7477;-56
2023/03/26 11:22:59;;;;;;;;;;;;;;;26.20;43.08;93279.41;4830215;29;7393;-56
2023/03/26 11:26:10;;;;;;;;;;;;;;;26.22;43.11;93270.59;4852504;29;9093;-56
2023/03/26 11:29:01;;;;;;;;;;;;;;;26.24;42.20;93262.53;4838020;29;7176;-56
2023/03/26 11:32:14;;;;;;;;;;;;;;;26.28;42.83;93263.66;4854794;29;8019;-56
2023/03/26 11:35:07;;;;;;;;;;;;;;;26.24;42.75;93249.50;4856330;29;8647;-56
2023/03/26 11:37:53;;;;;;;;;;;;;;;26.23;42.73;93256.28;4910609;29;9747;-56
2023/03/26 11:40:38;;;;;;;;;;;;;;;26.22;42.69;93259.56;4912897;29;7274;-56
2023/03/26 11:43:12;;;;;;;;;;;;;;;26.20;42.64;93256.63;4909419;28;7001;-56
2023/03/26 11:45:43;;;;;;;;;;;;;;;26.22;43.19;93243.78;5025338;28;7599;-56
2023/03/26 11:48:30;;;;;;;;;;;;;;;26.22;42.35;93248.53;4999573;28;9119;-56
2023/03/26 11:51:06;;;;;;;;;;;;;;;26.17;42.66;93256.44;5011566;28;9078;-56
2023/03/26 11:53:39;;;;;;;;;;;;;;;26.22;42.22;93245.78;4995648;28;7536;-56
2023/03/26 11:56:17;;;;;;;;;;;;;;;26.25;42.08;93241.97;5014743;28;9058;-56
2023/03/26 11:59:10;;;;;;;;;;;;;;;26.29;42.64;93239.59;5000199;28;9347;-56
2023/03/26 12:02:21;;;;;;;;;;;;;;;26.34;42.66;93238.72;5006688;28;9068;-56
2023/03/26 12:05:23;;;;;;;;;;;;;;;26.36;42.64;93233.38;5000950;28;7278;-56
2023/03/26 12:08:01;;;;;;;;;;;;;;;26.37;42.21;93230.09;5035059;28;8236;-56
2023/03/26 12:10:41;;;;;;;;;;;;;;;26.36;42.66;93223.06;4994128;28;9140;-56
2023/03/26 12:13:42;;;;;;;;;;;;;;;26.31;42.78;93212.22;5027791;28;7111;-56
2023/03/26 12:16:31;;;;;;;;;;;;;;;26.29;42.23;93206.50;5004015;28;7158;-56
2023/03/26 12:19:25;;;;;;;;;;;;;;;26.28;42.74;93232.59;5002691;28;7589;-56
2023/03/26 12:21:52;;;;;;;;;;;;;;;26.33;42.01;93223.44;4938505;28;7152;-56
2023/03/26 12:24:36;;;;;;;;;;;;;;;26.36;42.30;93220.31;4945831;28;9145;-56
2023/03/26 12:27:29;;;;;;;;;;;;;;;26.41;42.14;93197.38;4944539;28;8648;-56
2023/03/26 12:30:22;;;;;;;;;;;;;;;26.43;41.94;93185.81;4879669;29;9035;-56
2023/03/26 12:33:04;;;;;;;;;;;;;;;26.42;42.37;93187.09;4873347;29;8683;-55
2023/03/26 12:35:33;;;;;;;;;;;;;;;26.44;42.10;93187.28;4862110;29;9555;-56
2023/03/26 12:38:22;;;;;;;;;;;;;;;26.45;42.21;93172.94;4879880;29;8955;-56
2023/03/26 12:41:06;;;;;;;;;;;;;;;26.45;41.80;93144.63;4878610;29;7469;-56
2023/03/26 12:43:45;;;;;;;;;;;;;;;26.45;42.15;93144.63;4880213;29;7223;-56
2023/03/26 12:46:25;;;;;;;;;;;;;;;26.48;42.43;93157.34;4878653;29;7268;-56
2023/03/26 12:48:54;;;;;;;;;;;;;;;26.44;42.58;93156.97;4863834;29;9390;-56
2023/03/26 12:51:39;;;;;;;;;;;;;;;26.50;42.33;93160.28;4867364;29;8958;-56
2023/03/26 12:54:22;;;;;;;;;;;;;;;26.52;41.74;93158.47;4864183;29;8476;-56
2023/03/26 12:57:07;;;;;;;;;;;;;;;26.56;41.73;93163.59;4879927;29;8995;-56
2023/03/26 12:59:46;;;;;;;;;;;;;;;26.50;41.81;93154.78;4924059;29;7252;-56
2023/03/26 13:02:37;;;;;;;;;;;;;;;26.56;43.15;93171.88;4909367;29;9494;-56
2023/03/26 13:05:23;;;;;;;;;;;;;;;26.59;43.50;93168.03;4933296;29;9044;-55
2023/03/26 13:08:10;;;;;;;;;;;;;;;26.59;42.71;93145.97;4996885;28;7260;-56
2023/03/26 13:11:13;;;;;;;;;;;;;;;26.60;42.78;93147.47;5009034;28;9328;-55
2023/03/26 13:14:04;;;;;;;;;;;;;;;26.61;42.50;93154.44;4993218;28;8680;-55
2023/03/26 13:16:46;;;;;;;;;;;;;;;26.67;42.88;93141.22;5027285;28;9677;-55
2023/03/26 13:19:55;;;;;;;;;;;;;;;26.70;43.07;93123.59;5027134;28;7323;-55
2023/03/26 13:22:43;;;;;;;;;;;;;;;26.72;42.67;93126.53;5006491;28;8977;-55
2023/03/26 13:25:52;;;;;;;;;;;;;;;26.75;42.95;93111.69;5021746;28;9372;-55
2023/03/26 13:28:48;;;;;;;;;;;;;;;26.80;43.13;93105.22;5007564;28;7176;-55
2023/03/26 13:31:50;;;;;;;;;;;;;;;26.81;42.64;93101.19;5042207;28;8772;-55
2023/03/26 13:34:50;;;;;;;;;;;;;;;26.82;42.64;93097.88;5012062;28;9069;-56
2023/03/26 13:37:47;;;;;;;;;;;;;;;26.82;42.99;93088.88;4998841;28;9328;-55
2023/03/26 13:40:46;;;;;;;;;;;;;;;26.84;42.00;93078.75;5000810;28;9061;-56
2023/03/26 13:43:58;;;;;;;;;;;;;;;26.86;41.73;93061.66;5012569;28;9117;-55
2023/03/26 13:46:45;;;;;;;;;;;;;;;26.87;41.86;93065.88;4954828;28;7257;-55
2023/03/26 13:49:46;;;;;;;;;;;;;;;26.87;42.34;93068.66;4955754;28;8262;-56
2023/03/26 13:52:56;;;;;;;;;;;;;;;26.89;42.02;93063.31;4881439;29;9381;-55
2023/03/26 13:55:29;;;;;;;;;;;;;;;26.85;42.16;93060.94;4859358;29;7027;-55
2023/03/26 13:58:46;;;;;;;;;;;;;;;26.86;42.53;93053.41;4842462;29;7056;-56
2023/03/26 14:01:34;;;;;;;;;;;;;;;26.81;42.09;93046.03;4858882;29;9383;-55
2023/03/26 14:04:03;;;;;;;;;;;;;;;26.84;42.00;93042.16;4849323;29;9082;-55
2023/03/26 14:06:47;;;;;;;;;;;;;;;26.82;42.04;93037.19;4857503;29;7183;-55
2023/03/26 14:09:47;;;;;;;;;;;;;;;26.82;41.79;93028.91;4860235;29;7902;-56
2023/03/26 14:12:57;;;;;;;;;;;;;;;26.83;41.94;93037.94;4844952;29;7137;-55
2023/03/26 14:16:11;;;;;;;;;;;;;;;26.82;41.97;93037.19;4851859;29;7354;-56
2023/03/26 14:19:27;;;;;;;;;;;;;;;26.84;41.86;93037.38;4850551;29;9163;-55
2023/03/26 14:22:02;;;;;;;;;;;;;;;26.83;41.89;93038.69;4842719;29;7122;-56
2023/03/26 14:24:57;;;;;;;;;;;;;;;26.83;41.61;93046.22;4887530;29;8268;-55
2023/03/26 14:27:44;;;;;;;;;;;;;;;26.82;42.32;93048.22;4897540;29;9463;-56
2023/03/26 14:30:57;;;;;;;;;;;;;;;26.80;41.78;93083.91;5022078;28;7042;-55